createdAt,value
2022-10-11T00:02:06.143Z,11.13
2022-10-11T00:04:32.851Z,9.32
2022-10-11T00:06:59.659Z,13.35
2022-10-11T00:09:26.486Z,10.40
2022-10-11T00:11:56.164Z,12.98
2022-10-11T00:14:24.527Z,11.32
2022-10-11T00:16:51.591Z,13.10
2022-10-11T00:19:18.402Z,15.52
2022-10-11T00:21:45.330Z,14.70
2022-10-11T00:24:12.389Z,15.18
2022-10-11T00:26:43.188Z,12.18
2022-10-11T00:29:12.838Z,12.25
2022-10-11T00:31:40.479Z,12.43
2022-10-11T00:34:07.509Z,9.73
2022-10-11T00:36:34.247Z,10.68
2022-10-11T00:39:01.035Z,11.27
2022-10-11T00:41:27.742Z,12.30
2022-10-11T00:44:15.298Z,11.52
2022-10-11T00:46:45.810Z,11.73
2022-10-11T00:49:19.598Z,10.35
2022-10-11T00:51:51.502Z,8.27
2022-10-11T00:54:22.189Z,11.65
2022-10-11T00:56:53.813Z,14.95
2022-10-11T00:59:25.095Z,10.17
2022-10-11T01:01:52.291Z,11.65
2022-10-11T01:04:19.106Z,9.45
2022-10-11T01:06:47.251Z,10.95
2022-10-11T01:09:14.439Z,12.20
2022-10-11T01:11:43.418Z,10.20
2022-10-11T01:14:10.125Z,10.35
2022-10-11T01:16:52.669Z,11.55
2022-10-11T01:19:40.289Z,8.38
2022-10-11T01:22:45.632Z,8.98
2022-10-11T01:25:19.405Z,10.80
2022-10-11T01:27:59.804Z,10.82
2022-10-11T01:30:29.554Z,11.25
2022-10-11T01:33:02.062Z,12.57
2022-10-11T01:35:38.429Z,10.98
2022-10-11T01:38:27.255Z,9.23
2022-10-11T01:40:59.922Z,9.38
2022-10-11T01:43:28.414Z,11.00
2022-10-11T01:45:57.997Z,8.18
2022-10-11T01:48:24.717Z,14.10
2022-10-11T01:50:58.609Z,10.10
2022-10-11T01:53:55.074Z,10.82
2022-10-11T01:56:44.711Z,12.95
2022-10-11T01:59:20.123Z,10.02
2022-10-11T02:02:01.054Z,11.35
2022-10-11T02:04:32.903Z,13.27
2022-10-11T02:07:10.926Z,10.05
2022-10-11T02:10:08.049Z,12.88
2022-10-11T02:12:42.092Z,11.00
2022-10-11T02:15:10.886Z,13.05
2022-10-11T02:17:43.063Z,16.70
2022-10-11T02:20:15.187Z,14.70
2022-10-11T02:22:45.971Z,12.30
2022-10-11T02:25:17.814Z,14.68
2022-10-11T02:27:47.631Z,14.00
2022-10-11T02:30:15.826Z,10.97
2022-10-11T02:32:44.772Z,8.02
2022-10-11T02:35:12.008Z,10.77
2022-10-11T02:37:50.682Z,10.45
2022-10-11T02:40:32.084Z,9.27
2022-10-11T02:43:24.089Z,10.33
2022-10-11T02:46:00.285Z,13.98
2022-10-11T02:48:29.294Z,12.82
2022-10-11T02:50:57.366Z,14.15
2022-10-11T02:53:25.511Z,14.07
2022-10-11T02:55:53.958Z,11.47
2022-10-11T02:58:20.900Z,13.80
2022-10-11T03:00:47.975Z,11.50
2022-10-11T03:03:14.947Z,12.15
2022-10-11T03:05:41.786Z,11.88
2022-10-11T03:08:10.200Z,14.10
2022-10-11T03:10:37.983Z,16.08
2022-10-11T03:13:04.746Z,18.40
2022-10-11T03:15:31.655Z,37.80
2022-10-11T03:17:59.727Z,24.48
2022-10-11T03:20:26.683Z,29.33
2022-10-11T03:22:53.606Z,31.17
2022-10-11T03:25:20.353Z,22.70
2022-10-11T03:27:47.040Z,17.35
2022-10-11T03:30:17.897Z,18.13
2022-10-11T03:32:44.995Z,19.07
2022-10-11T03:35:11.675Z,20.17
2022-10-11T03:37:38.491Z,24.52
2022-10-11T03:40:08.921Z,20.80
2022-10-11T03:42:35.969Z,21.77
2022-10-11T03:45:05.062Z,22.20
2022-10-11T03:47:32.276Z,21.70
2022-10-11T03:49:59.003Z,18.27
2022-10-11T03:52:25.865Z,17.23
2022-10-11T03:54:52.838Z,22.42
2022-10-11T03:57:19.878Z,22.97
2022-10-11T03:59:46.718Z,25.40
2022-10-11T04:02:14.052Z,21.33
2022-10-11T04:04:40.779Z,20.13
2022-10-11T04:07:07.911Z,18.77
2022-10-11T04:09:34.874Z,18.47
2022-10-11T04:12:01.819Z,18.27
2022-10-11T04:14:28.548Z,16.17
2022-10-11T04:16:58.408Z,14.93
2022-10-11T04:19:27.263Z,13.60
2022-10-11T04:21:53.947Z,15.20
2022-10-11T04:24:20.767Z,11.48
2022-10-11T04:26:47.698Z,17.27
2022-10-11T04:29:14.426Z,18.27
2022-10-11T04:31:41.138Z,16.63
2022-10-11T04:34:07.826Z,20.50
2022-10-11T04:36:34.581Z,17.48
2022-10-11T04:39:01.887Z,18.13
2022-10-11T04:41:29.470Z,20.25
2022-10-11T04:43:56.283Z,16.60
2022-10-11T04:46:23.707Z,19.87
2022-10-11T04:48:50.764Z,23.42
2022-10-11T04:51:18.371Z,42.92
2022-10-11T04:53:45.141Z,36.42
2022-10-11T04:56:12.224Z,63.47
2022-10-11T04:58:42.891Z,37.80
2022-10-11T05:01:10.717Z,20.17
2022-10-11T05:03:37.908Z,18.38
2022-10-11T05:06:06.191Z,21.77
2022-10-11T05:08:33.912Z,26.45
2022-10-11T05:11:04.208Z,26.63
2022-10-11T05:13:32.244Z,27.10
2022-10-11T05:15:59.120Z,24.30
2022-10-11T05:18:27.261Z,19.33
2022-10-11T05:21:09.108Z,18.48
2022-10-11T05:23:37.284Z,29.97
2022-10-11T05:26:04.801Z,26.65
2022-10-11T05:28:31.997Z,22.42
2022-10-11T05:30:59.177Z,18.88
2022-10-11T05:33:26.356Z,18.60
2022-10-11T05:35:53.287Z,14.43
2022-10-11T05:38:20.237Z,15.70
2022-10-11T05:40:47.031Z,18.55
2022-10-11T05:43:13.805Z,19.45
2022-10-11T05:45:42.705Z,18.90
2022-10-11T05:48:10.350Z,16.70
2022-10-11T05:50:38.323Z,18.88
2022-10-11T05:53:06.115Z,16.02
2022-10-11T05:55:40.957Z,18.40
2022-10-11T05:58:10.232Z,23.67
2022-10-11T06:00:38.127Z,19.80
2022-10-11T06:03:10.948Z,20.80
2022-10-11T06:05:37.743Z,15.77
2022-10-11T06:08:06.699Z,15.07
2022-10-11T06:10:33.530Z,20.92
2022-10-11T06:13:00.321Z,14.87
2022-10-11T06:15:27.228Z,20.75
2022-10-11T06:17:54.382Z,14.68
2022-10-11T06:20:21.249Z,20.52
2022-10-11T06:22:48.035Z,16.05
2022-10-11T06:25:14.895Z,11.90
2022-10-11T06:27:41.593Z,17.13
2022-10-11T06:30:08.788Z,17.15
2022-10-11T06:32:35.474Z,19.50
2022-10-11T06:35:03.516Z,21.38
2022-10-11T06:37:30.360Z,18.47
2022-10-11T06:39:57.063Z,19.60
2022-10-11T06:42:23.970Z,17.65
2022-10-11T06:44:50.692Z,14.82
2022-10-11T06:47:17.393Z,12.77
2022-10-11T06:49:44.093Z,11.57
2022-10-11T06:52:10.907Z,11.75
2022-10-11T06:54:41.163Z,11.95
2022-10-11T06:57:10.127Z,17.55
2022-10-11T06:59:36.939Z,10.18
2022-10-11T07:02:03.648Z,13.77
2022-10-11T07:04:30.465Z,14.95
2022-10-11T07:06:57.306Z,13.25
2022-10-11T07:09:24.098Z,14.50
2022-10-11T07:11:51.184Z,13.68
2022-10-11T07:14:17.877Z,14.93
2022-10-11T07:16:44.611Z,13.38
2022-10-11T07:19:11.366Z,11.90
2022-10-11T07:21:38.101Z,10.20
2022-10-11T07:24:05.225Z,12.05
2022-10-11T07:26:38.219Z,9.53
2022-10-11T07:29:08.091Z,15.07
2022-10-11T07:31:39.810Z,9.23
2022-10-11T07:34:06.486Z,10.68
2022-10-11T07:36:33.308Z,11.32
2022-10-11T07:39:00.182Z,14.13
2022-10-11T07:41:27.038Z,17.08
2022-10-11T07:43:54.977Z,10.93
2022-10-11T07:46:22.850Z,10.43
2022-10-11T07:48:52.838Z,10.10
2022-10-11T07:51:22.740Z,10.10
2022-10-11T07:53:51.995Z,12.25
2022-10-11T07:56:22.653Z,15.88
2022-10-11T07:58:51.437Z,9.93
2022-10-11T08:01:18.821Z,10.57
2022-10-11T08:03:45.943Z,12.03
2022-10-11T08:06:15.115Z,14.15
2022-10-11T08:08:41.952Z,11.40
2022-10-11T08:11:08.836Z,12.35
2022-10-11T08:13:35.814Z,11.45
2022-10-11T08:16:11.114Z,16.53
2022-10-11T08:18:38.369Z,11.45
2022-10-11T08:21:13.855Z,11.50
2022-10-11T08:23:40.670Z,10.63
2022-10-11T08:26:08.687Z,10.18
2022-10-11T08:28:36.040Z,13.10
2022-10-11T08:31:03.462Z,10.40
2022-10-11T08:33:31.036Z,10.77
2022-10-11T08:35:58.523Z,10.88
2022-10-11T08:38:25.483Z,8.57
2022-10-11T08:40:55.713Z,12.50
2022-10-11T08:43:28.197Z,9.73
2022-10-11T08:45:58.374Z,12.98
2022-10-11T08:48:38.170Z,10.60
2022-10-11T08:51:22.872Z,11.23
2022-10-11T08:54:07.187Z,11.20
2022-10-11T08:56:37.758Z,9.05
2022-10-11T08:59:07.111Z,9.55
2022-10-11T09:01:34.056Z,12.48
2022-10-11T09:04:00.766Z,12.73
2022-10-11T09:06:32.678Z,12.83
2022-10-11T09:09:20.973Z,8.52
2022-10-11T09:11:47.675Z,9.98
2022-10-11T09:14:29.339Z,10.90
2022-10-11T09:17:22.965Z,10.68
2022-10-11T09:20:11.036Z,10.67
2022-10-11T09:23:15.063Z,13.32
2022-10-11T09:26:09.876Z,16.10
2022-10-11T09:29:00.946Z,14.55
2022-10-11T09:31:28.723Z,9.82
2022-10-11T09:33:56.030Z,11.87
2022-10-11T09:36:36.140Z,13.25
2022-10-11T09:39:10.214Z,8.60
2022-10-11T09:42:10.683Z,13.57
2022-10-11T09:44:51.939Z,7.50
2022-10-11T09:47:30.090Z,10.00
2022-10-11T09:49:58.168Z,12.35
2022-10-11T09:52:25.774Z,9.05
2022-10-11T09:54:59.937Z,10.48
2022-10-11T09:57:35.950Z,10.45
2022-10-11T10:00:22.143Z,9.03
2022-10-11T10:02:50.538Z,11.98
2022-10-11T10:05:21.844Z,10.75
2022-10-11T10:08:09.937Z,13.80
2022-10-11T10:11:07.327Z,12.65
2022-10-11T10:13:56.050Z,14.50
2022-10-11T10:16:28.798Z,9.70
2022-10-11T10:18:57.963Z,10.65
2022-10-11T10:21:28.670Z,10.38
2022-10-11T10:23:57.530Z,9.63
2022-10-11T10:26:26.402Z,9.93
2022-10-11T10:29:05.360Z,10.27
2022-10-11T10:32:12.885Z,13.68
2022-10-11T10:34:40.185Z,11.93
2022-10-11T10:37:18.133Z,11.82
2022-10-11T10:39:48.194Z,16.47
2022-10-11T10:42:18.650Z,13.77
2022-10-11T10:44:53.067Z,11.40
2022-10-11T10:48:06.280Z,14.15
2022-10-11T10:50:48.767Z,14.05
2022-10-11T10:53:42.070Z,12.87
2022-10-11T10:56:47.775Z,15.52
2022-10-11T10:59:34.555Z,15.63
2022-10-11T11:02:46.135Z,13.75
2022-10-11T11:05:38.826Z,17.95
2022-10-11T11:08:27.134Z,11.43
2022-10-11T11:11:12.060Z,11.77
2022-10-11T11:14:11.518Z,13.85
2022-10-11T11:16:48.524Z,14.05
2022-10-11T11:19:39.901Z,12.70
2022-10-11T11:22:49.123Z,13.07
2022-10-11T11:25:18.546Z,13.32
2022-10-11T11:27:50.927Z,13.13
2022-10-11T11:30:36.566Z,10.82
2022-10-11T11:33:22.415Z,13.52
2022-10-11T11:35:53.367Z,14.80
2022-10-11T11:38:29.422Z,10.50
2022-10-11T11:41:06.026Z,13.80
2022-10-11T11:43:38.283Z,13.32
2022-10-11T11:46:09.598Z,12.00
2022-10-11T11:48:38.847Z,12.87
2022-10-11T11:51:17.675Z,13.98
2022-10-11T11:54:16.634Z,15.32
2022-10-11T11:56:59.470Z,13.40
2022-10-11T11:59:44.310Z,12.30
2022-10-11T12:02:40.530Z,14.67
2022-10-11T12:05:09.525Z,17.75
2022-10-11T12:08:28.299Z,17.63
2022-10-11T12:11:00.411Z,14.18
2022-10-11T12:13:34.727Z,13.90
2022-10-11T12:16:12.327Z,16.30
2022-10-11T12:18:53.759Z,15.93
2022-10-11T12:21:30.134Z,15.23
2022-10-11T12:24:11.903Z,15.93
2022-10-11T12:26:41.947Z,17.92
2022-10-11T12:29:18.225Z,14.50
2022-10-11T12:31:50.307Z,15.90
2022-10-11T12:37:19.664Z,17.45
2022-10-11T12:39:56.020Z,14.93
2022-10-11T12:42:31.894Z,13.70
2022-10-11T12:45:13.618Z,15.02
2022-10-11T12:47:43.131Z,13.05
2022-10-11T12:50:21.658Z,14.00
2022-10-11T12:53:09.646Z,16.13
2022-10-11T12:56:07.501Z,12.73
2022-10-11T12:58:41.246Z,14.38
2022-10-11T13:01:12.910Z,14.63
2022-10-11T13:03:42.530Z,16.90
2022-10-11T13:06:33.311Z,21.20
2022-10-11T13:09:18.011Z,12.63
2022-10-11T13:11:55.279Z,19.17
2022-10-11T13:14:25.269Z,12.65
2022-10-11T13:17:04.028Z,14.27
2022-10-11T13:19:37.079Z,14.70
2022-10-11T13:22:15.161Z,14.57
2022-10-11T13:24:42.618Z,14.10
2022-10-11T13:27:19.622Z,13.52
2022-10-11T13:29:47.820Z,13.63
2022-10-11T13:32:19.662Z,12.85
2022-10-11T13:34:49.166Z,15.20
2022-10-11T13:37:19.920Z,16.45
2022-10-11T13:39:48.989Z,15.68
2022-10-11T13:42:17.629Z,13.15
2022-10-11T13:44:46.359Z,13.13
2022-10-11T13:47:15.710Z,14.93
2022-10-11T13:49:47.786Z,16.40
2022-10-11T13:52:20.199Z,13.32
2022-10-11T13:55:07.825Z,14.05
2022-10-11T13:58:02.894Z,13.05
2022-10-11T14:00:36.536Z,13.77
2022-10-11T14:03:15.303Z,15.30
2022-10-11T14:05:51.797Z,14.82
2022-10-11T14:08:21.599Z,15.02
2022-10-11T14:10:52.855Z,15.38
2022-10-11T14:13:30.289Z,12.87
2022-10-11T14:15:59.714Z,14.73
2022-10-11T14:18:44.555Z,15.57
2022-10-11T14:21:20.458Z,13.43
2022-10-11T14:23:50.818Z,15.30
2022-10-11T14:26:19.183Z,14.90
2022-10-11T14:28:57.754Z,14.10
2022-10-11T14:31:28.509Z,16.17
2022-10-11T14:33:55.854Z,14.95
2022-10-11T14:36:23.208Z,16.13
2022-10-11T14:38:51.623Z,13.47
2022-10-11T14:41:18.687Z,17.20
2022-10-11T14:43:45.410Z,14.65
2022-10-11T14:46:24.411Z,19.33
2022-10-11T14:48:56.205Z,17.60
2022-10-11T14:51:29.116Z,17.87
2022-10-11T14:53:55.883Z,17.67
2022-10-11T14:56:22.777Z,14.80
2022-10-11T14:58:49.695Z,16.90
2022-10-11T15:01:17.613Z,20.08
2022-10-11T15:03:44.559Z,14.17
2022-10-11T15:06:18.603Z,18.70
2022-10-11T15:08:45.811Z,18.92
2022-10-11T15:11:15.423Z,31.38
2022-10-11T15:13:42.207Z,22.85
2022-10-11T15:16:11.898Z,14.97
2022-10-11T15:18:39.314Z,16.50
2022-10-11T15:21:06.678Z,20.80
2022-10-11T15:23:33.447Z,18.75
2022-10-11T15:26:00.410Z,18.35
2022-10-11T15:28:29.412Z,13.60
2022-10-11T15:30:56.628Z,18.45
2022-10-11T15:33:24.875Z,20.60
2022-10-11T15:35:51.903Z,13.30
2022-10-11T15:38:21.363Z,16.73
2022-10-11T15:40:48.843Z,18.13
2022-10-11T15:43:18.814Z,18.23
2022-10-11T15:45:48.819Z,15.85
2022-10-11T15:48:21.358Z,18.52
2022-10-11T15:50:50.110Z,14.20
2022-10-11T15:53:19.494Z,17.33
2022-10-11T15:55:51.907Z,17.05
2022-10-11T15:58:28.146Z,19.20
2022-10-11T16:00:57.303Z,18.58
2022-10-11T16:03:26.469Z,20.20
2022-10-11T16:05:54.571Z,22.77
2022-10-11T16:08:23.208Z,21.58
2022-10-11T16:10:52.037Z,20.05
2022-10-11T16:13:19.436Z,27.75
2022-10-11T16:15:48.683Z,19.58
2022-10-11T16:18:20.570Z,22.53
2022-10-11T16:20:48.838Z,21.27
2022-10-11T16:23:15.922Z,20.67
2022-10-11T16:25:43.947Z,22.02
2022-10-11T16:28:11.013Z,20.63
2022-10-11T16:30:45.807Z,17.07
2022-10-11T16:33:12.608Z,21.08
2022-10-11T16:35:43.618Z,25.40
2022-10-11T16:38:10.997Z,26.58
2022-10-11T16:40:39.965Z,23.35
2022-10-11T16:43:08.568Z,26.33
2022-10-11T16:45:36.885Z,25.08
2022-10-11T16:48:04.852Z,51.50
2022-10-11T16:50:36.853Z,26.13
2022-10-11T16:53:06.154Z,23.13
2022-10-11T16:55:32.912Z,25.17
2022-10-11T16:57:59.730Z,24.33
2022-10-11T17:00:26.445Z,20.85
2022-10-11T17:02:53.187Z,22.20
2022-10-11T17:05:19.979Z,25.67
2022-10-11T17:07:46.767Z,20.90
2022-10-11T17:10:13.561Z,23.48
2022-10-11T17:12:40.338Z,22.13
2022-10-11T17:15:07.655Z,27.67
2022-10-11T17:17:34.371Z,23.15
2022-10-11T17:20:02.384Z,26.13
2022-10-11T17:22:29.343Z,31.73
2022-10-11T17:24:56.119Z,32.63
2022-10-11T17:27:23.027Z,32.20
2022-10-11T17:29:49.676Z,27.25
2022-10-11T17:32:16.338Z,27.47
2022-10-11T17:34:43.178Z,27.98
2022-10-11T17:37:10.144Z,26.20
2022-10-11T17:39:36.918Z,28.77
2022-10-11T17:42:07.443Z,26.33
2022-10-11T17:44:35.638Z,23.70
2022-10-11T17:47:02.862Z,24.20
2022-10-11T17:49:31.431Z,23.73
2022-10-11T17:51:58.825Z,23.45
2022-10-11T17:54:26.113Z,25.08
2022-10-11T17:56:55.155Z,25.93
2022-10-11T17:59:22.962Z,24.08
2022-10-11T18:01:54.303Z,25.75
2022-10-11T18:04:22.599Z,24.35
2022-10-11T18:06:49.585Z,23.00
2022-10-11T18:09:18.409Z,30.40
2022-10-11T18:11:45.799Z,49.15
2022-10-11T18:14:13.047Z,45.15
2022-10-11T18:16:40.603Z,54.22
2022-10-11T18:19:10.858Z,44.38
2022-10-11T18:21:38.003Z,45.23
2022-10-11T18:24:12.267Z,41.45
2022-10-11T18:26:39.824Z,37.25
2022-10-11T18:29:07.037Z,34.00
2022-10-11T18:31:35.372Z,39.95
2022-10-11T18:34:03.919Z,42.03
2022-10-11T18:36:31.954Z,48.10
2022-10-11T18:39:02.161Z,50.55
2022-10-11T18:41:33.412Z,53.30
2022-10-11T18:44:14.749Z,46.33
2022-10-11T18:46:46.147Z,50.93
2022-10-11T18:49:14.277Z,43.10
2022-10-11T18:51:43.229Z,43.08
2022-10-11T18:54:16.878Z,46.03
2022-10-11T18:56:47.528Z,38.75
2022-10-11T18:59:16.681Z,38.63
2022-10-11T19:01:52.048Z,33.83
2022-10-11T19:04:19.488Z,33.47
2022-10-11T19:06:48.111Z,35.50
2022-10-11T19:09:23.111Z,32.67
2022-10-11T19:11:51.666Z,29.40
2022-10-11T19:14:25.829Z,32.95
2022-10-11T19:16:53.293Z,38.88
2022-10-11T19:19:26.265Z,38.40
2022-10-11T19:21:53.986Z,47.47
2022-10-11T19:24:24.406Z,40.50
2022-10-11T19:26:53.135Z,28.15
2022-10-11T19:29:22.808Z,29.85
2022-10-11T19:31:55.755Z,26.85
2022-10-11T19:34:23.998Z,29.42
2022-10-11T19:36:52.806Z,25.93
2022-10-11T19:39:21.647Z,26.88
2022-10-11T19:41:49.071Z,35.00
2022-10-11T19:44:16.487Z,30.08
2022-10-11T19:46:51.574Z,26.85
2022-10-11T19:49:22.544Z,29.77
2022-10-11T19:51:49.927Z,33.50
2022-10-11T19:54:17.036Z,29.33
2022-10-11T19:56:44.714Z,31.17
2022-10-11T19:59:12.442Z,26.75
2022-10-11T20:01:40.075Z,34.00
2022-10-11T20:04:09.210Z,32.05
2022-10-11T20:06:40.433Z,30.88
2022-10-11T20:09:28.374Z,32.95
2022-10-11T20:11:56.956Z,35.78
2022-10-11T20:14:23.863Z,31.03
2022-10-11T20:16:50.909Z,28.20
2022-10-11T20:19:17.995Z,31.85
2022-10-11T20:21:45.278Z,34.42
2022-10-11T20:24:12.198Z,29.92
2022-10-11T20:26:39.378Z,35.43
2022-10-11T20:29:06.550Z,33.95
2022-10-11T20:31:34.782Z,34.20
2022-10-11T20:34:04.217Z,35.92
2022-10-11T20:36:33.068Z,35.22
2022-10-11T20:39:00.660Z,36.60
2022-10-11T20:41:31.612Z,38.00
2022-10-11T20:44:00.095Z,44.17
2022-10-11T20:46:29.996Z,38.35
2022-10-11T20:49:02.321Z,38.47
2022-10-11T20:51:34.856Z,33.67
2022-10-11T20:54:04.148Z,34.55
2022-10-11T20:56:31.240Z,32.30
2022-10-11T20:58:58.876Z,34.10
2022-10-11T21:01:28.841Z,35.92
2022-10-11T21:03:57.616Z,34.57
2022-10-11T21:06:24.507Z,31.65
2022-10-11T21:08:51.307Z,32.10
2022-10-11T21:11:18.135Z,30.65
2022-10-11T21:13:46.793Z,29.70
2022-10-11T21:16:16.011Z,27.37
2022-10-11T21:18:43.099Z,29.40
2022-10-11T21:21:12.670Z,26.70
2022-10-11T21:23:40.159Z,34.58
2022-10-11T21:26:10.164Z,32.95
2022-10-11T21:28:37.820Z,32.90
2022-10-11T21:31:23.768Z,31.92
2022-10-11T21:33:50.895Z,31.40
2022-10-11T21:36:22.146Z,30.75
2022-10-11T21:38:49.923Z,29.80
2022-10-11T21:41:22.691Z,29.90
2022-10-11T21:43:49.995Z,35.75
2022-10-11T21:47:01.723Z,34.50
2022-10-11T21:49:24.144Z,36.65
2022-10-11T21:51:51.257Z,33.97
2022-10-11T21:54:17.993Z,31.63
2022-10-11T21:56:44.835Z,32.63
2022-10-11T21:59:12.794Z,34.28
2022-10-11T22:01:41.243Z,29.13
2022-10-11T22:04:08.473Z,27.60
2022-10-11T22:06:36.397Z,30.20
2022-10-11T22:09:04.532Z,29.20
2022-10-11T22:11:31.287Z,26.83
2022-10-11T22:13:58.721Z,30.45
2022-10-11T22:16:25.454Z,24.75
2022-10-11T22:18:53.500Z,30.17
2022-10-11T22:21:22.726Z,29.55
2022-10-11T22:23:51.281Z,25.52
2022-10-11T22:26:23.342Z,27.25
2022-10-11T22:28:50.386Z,30.67
2022-10-11T22:31:19.681Z,24.77
2022-10-11T22:33:46.489Z,28.40
2022-10-11T22:36:13.913Z,29.42
2022-10-11T22:38:42.236Z,27.73
2022-10-11T22:41:09.882Z,28.33
2022-10-11T22:43:37.024Z,25.77
2022-10-11T22:46:04.544Z,25.58
2022-10-11T22:48:31.272Z,33.20
2022-10-11T22:50:57.988Z,24.70
2022-10-11T22:53:24.763Z,23.75
2022-10-11T22:55:51.554Z,26.70
2022-10-11T22:58:18.542Z,26.52
2022-10-11T23:00:45.483Z,24.23
2022-10-11T23:03:13.463Z,27.85
2022-10-11T23:05:40.368Z,29.67
2022-10-11T23:08:09.528Z,29.07
2022-10-11T23:10:40.367Z,31.60
2022-10-11T23:13:07.545Z,32.83
2022-10-11T23:15:34.226Z,36.17
2022-10-11T23:18:00.929Z,30.25
2022-10-11T23:20:27.686Z,27.90
2022-10-11T23:22:54.462Z,30.27
2022-10-11T23:25:21.145Z,35.22
2022-10-11T23:27:47.826Z,33.72
2022-10-11T23:30:14.956Z,27.40
2022-10-11T23:32:41.766Z,25.97
2022-10-11T23:35:08.607Z,25.15
2022-10-11T23:37:35.710Z,28.50
2022-10-11T23:40:03.290Z,27.60
2022-10-11T23:42:30.001Z,27.20
2022-10-11T23:44:56.720Z,22.93
2022-10-11T23:47:23.482Z,23.27
2022-10-11T23:49:50.208Z,27.30
2022-10-11T23:52:16.921Z,25.67
2022-10-11T23:54:43.697Z,25.55
2022-10-11T23:57:10.464Z,25.23
2022-10-11T23:59:37.183Z,26.40
